createdAt,value
2022-10-17T00:04:17.892Z,4.90
2022-10-17T00:09:19.544Z,7.10
2022-10-17T00:14:21.342Z,4.60
2022-10-17T00:19:22.956Z,5.80
2022-10-17T00:24:24.716Z,9.33
2022-10-17T00:29:26.359Z,4.00
2022-10-17T00:34:28.957Z,5.60
2022-10-17T00:39:31.591Z,4.60
2022-10-17T00:44:33.280Z,6.47
2022-10-17T00:49:36.274Z,7.10
2022-10-17T00:54:39.979Z,7.40
2022-10-17T00:59:41.785Z,3.93
2022-10-17T01:04:45.449Z,4.07
2022-10-17T01:09:47.669Z,6.23
2022-10-17T01:15:02.810Z,5.73
2022-10-17T01:20:43.824Z,9.07
2022-10-17T01:26:02.324Z,9.90
2022-10-17T01:31:13.316Z,8.33
2022-10-17T01:36:37.936Z,14.93
2022-10-17T01:41:44.196Z,7.60
2022-10-17T01:46:54.329Z,5.00
2022-10-17T01:51:58.317Z,6.30
2022-10-17T01:57:01.421Z,5.83
2022-10-17T02:02:03.913Z,5.13
2022-10-17T02:07:09.349Z,4.73
2022-10-17T02:12:34.703Z,7.50
2022-10-17T02:17:45.239Z,4.03
2022-10-17T02:22:48.422Z,3.50
2022-10-17T02:27:58.746Z,4.23
2022-10-17T02:33:30.750Z,4.37
2022-10-17T02:38:32.380Z,3.40
2022-10-17T02:43:34.827Z,8.33
2022-10-17T02:48:44.300Z,6.50
2022-10-17T02:54:01.406Z,4.17
2022-10-17T02:59:03.138Z,2.80
2022-10-17T03:04:09.384Z,4.10
2022-10-17T03:09:11.041Z,8.23
2022-10-17T03:14:12.768Z,6.20
2022-10-17T03:19:14.926Z,4.97
2022-10-17T03:24:16.703Z,7.17
2022-10-17T03:29:19.296Z,9.70
2022-10-17T03:34:21.967Z,4.40
2022-10-17T03:39:23.874Z,3.60
2022-10-17T03:44:25.606Z,4.07
2022-10-17T03:49:27.396Z,4.63
2022-10-17T03:54:29.404Z,5.97
2022-10-17T03:59:31.232Z,3.70
2022-10-17T04:04:38.783Z,4.90
2022-10-17T04:09:40.511Z,3.80
2022-10-17T04:14:46.667Z,7.43
2022-10-17T04:19:49.803Z,4.17
2022-10-17T04:24:52.992Z,13.23
2022-10-17T04:30:20.779Z,7.20
2022-10-17T04:35:22.611Z,5.23
2022-10-17T04:40:34.630Z,3.90
2022-10-17T04:45:36.621Z,4.30
2022-10-17T04:50:40.415Z,8.40
2022-10-17T04:55:56.061Z,10.50
2022-10-17T05:00:57.872Z,6.77
2022-10-17T05:06:06.950Z,12.67
2022-10-17T05:11:22.435Z,11.00
2022-10-17T05:16:24.604Z,14.37
2022-10-17T05:21:26.842Z,13.20
2022-10-17T05:26:29.125Z,8.47
2022-10-17T05:31:31.162Z,9.17
2022-10-17T05:36:33.215Z,9.90
2022-10-17T05:41:36.394Z,6.33
2022-10-17T05:46:38.065Z,7.23
2022-10-17T05:56:51.719Z,6.60
2022-10-17T06:01:55.585Z,14.03
2022-10-17T06:06:57.407Z,8.20
2022-10-17T06:11:59.148Z,6.53
2022-10-17T06:17:01.303Z,6.43
2022-10-17T06:22:03.036Z,5.47
2022-10-17T06:27:10.870Z,6.53
2022-10-17T06:32:15.239Z,7.10
2022-10-17T06:37:20.294Z,9.63
2022-10-17T06:42:22.422Z,6.80
2022-10-17T06:47:44.380Z,9.53
2022-10-17T06:53:21.958Z,7.90
2022-10-17T06:58:23.801Z,7.70
2022-10-17T07:03:41.093Z,6.50
2022-10-17T07:08:44.476Z,11.10
2022-10-17T07:13:46.971Z,11.23
2022-10-17T07:18:50.497Z,7.53
2022-10-17T07:23:53.264Z,9.40
2022-10-17T07:28:55.823Z,9.23
2022-10-17T07:34:06.925Z,6.30
2022-10-17T07:39:08.649Z,12.40
2022-10-17T07:44:12.233Z,9.20
2022-10-17T07:49:20.664Z,12.73
2022-10-17T07:54:22.675Z,8.13
2022-10-17T07:59:24.437Z,10.93
2022-10-17T08:04:26.545Z,9.30
2022-10-17T08:09:28.181Z,10.73
2022-10-17T08:14:29.892Z,13.17
2022-10-17T08:19:31.538Z,5.90
2022-10-17T08:24:33.218Z,11.83
2022-10-17T08:29:34.912Z,9.60
2022-10-17T08:34:36.596Z,6.70
2022-10-17T08:39:38.308Z,10.03
2022-10-17T08:45:02.971Z,13.80
2022-10-17T08:50:07.045Z,6.50
2022-10-17T08:55:16.886Z,7.33
2022-10-17T09:00:19.989Z,16.10
2022-10-17T09:05:30.962Z,8.13
2022-10-17T09:10:49.418Z,12.27
2022-10-17T09:15:55.219Z,14.60
2022-10-17T09:21:18.828Z,14.30
2022-10-17T09:26:20.477Z,11.27
2022-10-17T09:31:23.870Z,11.07
2022-10-17T09:36:31.453Z,11.20
2022-10-17T09:41:52.552Z,9.23
2022-10-17T09:47:03.415Z,6.50
2022-10-17T09:52:06.871Z,6.23
2022-10-17T09:57:09.660Z,9.00
2022-10-17T10:02:22.067Z,15.30
2022-10-17T10:07:29.098Z,9.33
2022-10-17T10:12:35.687Z,7.67
2022-10-17T10:17:44.043Z,8.60
2022-10-17T10:22:45.661Z,7.90
2022-10-17T10:27:47.323Z,9.53
2022-10-17T10:32:49.075Z,9.13
2022-10-17T10:37:55.013Z,5.03
2022-10-17T10:43:00.250Z,8.37
2022-10-17T10:48:22.950Z,4.33
2022-10-17T10:53:47.268Z,6.70
2022-10-17T10:58:58.461Z,6.93
2022-10-17T11:04:33.334Z,7.60
2022-10-17T11:10:03.281Z,8.90
2022-10-17T11:15:14.018Z,9.37
2022-10-17T11:20:42.770Z,7.27
2022-10-17T11:25:44.426Z,11.20
2022-10-17T11:30:56.766Z,7.40
2022-10-17T11:36:04.564Z,7.73
2022-10-17T11:41:06.207Z,7.77
2022-10-17T11:46:23.822Z,6.60
2022-10-17T11:56:50.077Z,4.20
2022-10-17T12:01:57.491Z,6.83
2022-10-17T12:07:11.883Z,4.53
2022-10-17T12:12:30.717Z,7.67
2022-10-17T12:17:40.379Z,12.50
2022-10-17T12:22:48.382Z,8.90
2022-10-17T12:27:50.409Z,9.83
2022-10-17T12:33:22.136Z,5.23
2022-10-17T12:38:25.278Z,7.60
2022-10-17T12:43:39.719Z,5.73
2022-10-17T12:48:44.227Z,12.13
2022-10-17T12:54:01.830Z,10.00
2022-10-17T12:59:24.263Z,4.80
2022-10-17T13:04:26.101Z,5.73
2022-10-17T13:09:32.783Z,10.10
2022-10-17T13:14:34.470Z,4.60
2022-10-17T13:19:44.286Z,5.27
2022-10-17T13:24:46.137Z,4.73
2022-10-17T13:29:47.804Z,8.83
2022-10-17T13:35:13.296Z,18.83
2022-10-17T13:45:45.940Z,7.47
2022-10-17T13:50:50.138Z,10.37
2022-10-17T13:56:23.210Z,12.73
2022-10-17T14:01:28.399Z,7.97
2022-10-17T14:06:30.135Z,13.13
2022-10-17T14:11:42.623Z,13.20
2022-10-17T14:16:44.324Z,12.77
2022-10-17T14:21:48.653Z,13.93
2022-10-17T14:26:51.850Z,6.87
2022-10-17T14:32:05.238Z,4.83
2022-10-17T14:37:22.071Z,11.93
2022-10-17T14:42:23.699Z,26.67
2022-10-17T14:53:12.640Z,7.43
2022-10-17T14:58:27.594Z,16.73
2022-10-17T15:03:29.283Z,9.70
2022-10-17T15:08:31.101Z,29.50
2022-10-17T15:13:39.217Z,10.67
2022-10-17T15:18:43.884Z,57.70
2022-10-17T15:23:45.564Z,14.73
2022-10-17T15:28:47.632Z,16.50
2022-10-17T15:33:49.667Z,7.90
2022-10-17T15:38:53.162Z,12.30
2022-10-17T15:43:54.848Z,6.33
2022-10-17T15:48:57.286Z,13.63
2022-10-17T15:54:01.460Z,13.83
2022-10-17T15:59:04.584Z,7.40
2022-10-17T16:04:06.377Z,12.33
2022-10-17T16:09:08.427Z,5.10
2022-10-17T16:14:14.612Z,10.87
2022-10-17T16:19:16.846Z,9.77
2022-10-17T16:24:18.600Z,12.73
2022-10-17T16:29:20.325Z,27.27
2022-10-17T16:34:21.938Z,10.47
2022-10-17T16:39:23.613Z,12.60
2022-10-17T16:44:25.407Z,14.27
2022-10-17T16:49:27.031Z,10.57
2022-10-17T16:54:29.440Z,10.70
2022-10-17T16:59:31.087Z,9.27
2022-10-17T17:04:32.707Z,8.93
2022-10-17T17:09:34.333Z,6.30
2022-10-17T17:14:35.992Z,11.23
2022-10-17T17:19:37.637Z,10.60
2022-10-17T17:24:39.294Z,8.07
2022-10-17T17:29:40.902Z,7.00
2022-10-17T17:34:42.528Z,14.60
2022-10-17T17:39:44.237Z,9.10
2022-10-17T17:44:45.925Z,9.03
2022-10-17T17:49:47.593Z,12.80
2022-10-17T17:54:49.221Z,10.70
2022-10-17T17:59:52.135Z,13.93
2022-10-17T18:04:53.776Z,12.47
2022-10-17T18:09:56.891Z,10.20
2022-10-17T18:14:58.586Z,14.53
2022-10-17T18:20:00.229Z,9.80
2022-10-17T18:25:01.993Z,9.83
2022-10-17T18:30:04.265Z,16.10
2022-10-17T18:35:06.267Z,13.83
2022-10-17T18:40:08.479Z,15.07
2022-10-17T18:45:11.281Z,11.70
2022-10-17T18:50:14.107Z,19.20
2022-10-17T18:55:19.576Z,13.57
2022-10-17T19:00:21.238Z,12.07
2022-10-17T19:05:23.036Z,12.87
2022-10-17T19:10:25.662Z,15.33
2022-10-17T19:15:27.459Z,14.70
2022-10-17T19:20:29.200Z,13.73
2022-10-17T19:25:30.910Z,17.00
2022-10-17T19:30:32.741Z,19.20
2022-10-17T19:35:34.842Z,18.33
2022-10-17T19:40:40.563Z,12.17
2022-10-17T19:45:42.368Z,24.30
2022-10-17T19:50:44.494Z,22.60
2022-10-17T19:55:46.165Z,21.93
2022-10-17T20:00:52.425Z,16.40
2022-10-17T20:05:54.111Z,18.20
2022-10-17T20:10:55.746Z,20.77
2022-10-17T20:15:58.032Z,22.50
2022-10-17T20:21:08.176Z,22.30
2022-10-17T20:26:26.005Z,21.33
2022-10-17T20:31:35.285Z,20.40
2022-10-17T20:36:37.482Z,19.10
2022-10-17T20:41:39.882Z,17.47
2022-10-17T20:46:52.747Z,19.83
2022-10-17T20:52:02.198Z,18.70
2022-10-17T20:57:05.027Z,21.20
2022-10-17T21:02:06.874Z,20.30
2022-10-17T21:07:08.523Z,26.43
2022-10-17T21:12:10.247Z,23.10
2022-10-17T21:17:15.763Z,30.77
2022-10-17T21:22:17.465Z,21.70
2022-10-17T21:27:19.301Z,24.57
2022-10-17T21:32:33.376Z,25.07
2022-10-17T21:37:42.730Z,22.70
2022-10-17T21:42:44.405Z,23.80
2022-10-17T21:48:11.237Z,26.00
2022-10-17T21:53:07.678Z,21.47
2022-10-17T21:58:12.289Z,27.33
2022-10-17T22:03:15.135Z,19.63
2022-10-17T22:08:16.807Z,35.57
2022-10-17T22:13:18.472Z,28.07
2022-10-17T22:18:20.284Z,25.10
2022-10-17T22:23:21.959Z,23.60
2022-10-17T22:28:23.809Z,27.77
2022-10-17T22:33:25.504Z,25.10
2022-10-17T22:38:27.177Z,21.93
2022-10-17T22:43:28.876Z,25.00
2022-10-17T22:48:30.740Z,30.47
2022-10-17T22:53:32.451Z,21.67
2022-10-17T22:58:34.346Z,30.00
2022-10-17T23:03:36.096Z,30.83
2022-10-17T23:08:37.717Z,23.10
2022-10-17T23:13:40.695Z,28.23
2022-10-17T23:18:43.574Z,31.10
2022-10-17T23:23:45.206Z,26.43
2022-10-17T23:28:46.917Z,24.53
2022-10-17T23:33:49.172Z,26.20
2022-10-17T23:38:52.718Z,21.27
2022-10-17T23:43:56.728Z,28.70
2022-10-17T23:48:58.369Z,23.17
2022-10-17T23:53:59.997Z,30.40
2022-10-17T23:59:01.686Z,40.60
